Time;durP1;ratioP1;P1;durP2;ratioP2;P2;SDS_P1;SDS_P2;PMS_P1;PMS_P2;Temp;Humidity;BMP_temperature;BMP_pressure;BME280_temperature;BME280_humidity;BME280_pressure;Samples;Min_cycle;Max_cycle;Signal;HPM_P1;HPM_P2
2022/09/16 00:02:12;;;;;;;4.90;4.40;;;12.50;99.90;;;;;;5075906;28;20028;-65
2022/09/16 00:04:39;;;;;;;12.98;5.07;;;12.50;99.90;;;;;;5085371;28;20039;-65
2022/09/16 00:07:04;;;;;;;6.10;5.22;;;12.50;99.90;;;;;;5082920;28;20088;-65
2022/09/16 00:09:30;;;;;;;5.20;4.70;;;12.50;99.90;;;;;;5080765;28;20620;-65
2022/09/16 00:11:56;;;;;;;6.57;4.82;;;12.50;99.90;;;;;;5081425;28;20031;-65
2022/09/16 00:14:21;;;;;;;5.95;5.35;;;12.50;99.90;;;;;;5078409;28;20025;-65
2022/09/16 00:16:47;;;;;;;4.75;4.22;;;12.50;99.90;;;;;;5080798;28;20487;-64
2022/09/16 00:19:13;;;;;;;6.45;4.35;;;12.50;99.90;;;;;;5080111;28;20028;-65
2022/09/16 00:21:38;;;;;;;7.45;4.60;;;12.50;99.90;;;;;;5076680;28;20031;-65
2022/09/16 00:24:04;;;;;;;5.13;4.13;;;12.50;99.90;;;;;;5078100;28;20103;-64
2022/09/16 00:26:30;;;;;;;5.72;4.57;;;12.50;99.90;;;;;;5081590;28;20044;-66
2022/09/16 00:28:55;;;;;;;7.00;4.20;;;12.50;99.90;;;;;;5083450;28;20555;-66
2022/09/16 00:31:21;;;;;;;7.22;4.43;;;12.40;99.90;;;;;;5078984;28;20052;-65
2022/09/16 00:33:47;;;;;;;7.03;5.13;;;12.40;99.90;;;;;;5079718;28;20020;-65
2022/09/16 00:36:15;;;;;;;5.05;4.30;;;12.40;99.90;;;;;;5078699;28;20027;-66
2022/09/16 00:38:41;;;;;;;7.85;4.45;;;12.30;99.90;;;;;;5076045;28;20036;-65
2022/09/16 00:41:11;;;;;;;4.30;3.95;;;12.30;99.90;;;;;;5083947;28;20420;-65
2022/09/16 00:44:27;;;;;;;5.95;5.07;;;12.30;99.90;;;;;;5081876;28;20033;-66
2022/09/16 00:46:54;;;;;;;5.40;4.32;;;12.30;99.90;;;;;;5052034;28;20020;-65
2022/09/16 00:49:26;;;;;;;6.13;4.90;;;12.30;99.90;;;;;;5081658;28;20044;-65
2022/09/16 00:51:56;;;;;;;4.13;3.75;;;12.20;99.90;;;;;;5083001;28;20384;-63
2022/09/16 00:54:23;;;;;;;5.53;4.35;;;12.20;99.90;;;;;;5079590;28;20031;-63
2022/09/16 00:56:52;;;;;;;6.80;4.93;;;12.20;99.90;;;;;;5086568;28;20050;-63
2022/09/16 00:59:25;;;;;;;6.18;5.13;;;12.10;99.90;;;;;;5082302;28;20033;-63
2022/09/16 01:01:54;;;;;;;8.23;5.40;;;12.10;99.90;;;;;;5080614;28;20443;-63
2022/09/16 01:04:24;;;;;;;5.95;5.43;;;12.10;99.90;;;;;;5078950;28;20098;-63
2022/09/16 01:06:51;;;;;;;6.95;5.47;;;12.10;99.90;;;;;;5084183;28;20020;-63
2022/09/16 01:09:20;;;;;;;5.72;4.70;;;12.00;99.90;;;;;;5078213;28;20036;-63
2022/09/16 01:11:45;;;;;;;5.30;4.80;;;12.10;99.90;;;;;;5084957;28;20028;-63
2022/09/16 01:17:08;;;;;;;8.95;4.60;;;12.10;99.90;;;;;;5081631;28;20039;-63
2022/09/16 01:20:15;;;;;;;5.95;4.75;;;12.10;99.90;;;;;;5083502;28;20571;-63
2022/09/16 01:22:53;;;;;;;7.53;5.38;;;12.10;99.90;;;;;;5081223;28;20559;-63
2022/09/16 01:25:50;;;;;;;5.50;5.00;;;12.10;99.90;;;;;;5079540;28;20113;-63
2022/09/16 01:28:27;;;;;;;5.65;5.15;;;12.10;99.90;;;;;;5081374;28;20071;-63
2022/09/16 01:31:14;;;;;;;9.60;5.15;;;12.10;99.90;;;;;;5083273;28;20020;-63
2022/09/16 01:34:01;;;;;;;8.38;5.25;;;12.10;99.90;;;;;;5083305;28;20063;-63
2022/09/16 01:36:43;;;;;;;8.85;5.18;;;12.20;99.90;;;;;;5062709;28;20621;-63
2022/09/16 01:39:27;;;;;;;7.13;5.15;;;12.10;99.90;;;;;;5062239;28;20028;-64
2022/09/16 01:42:19;;;;;;;6.40;5.32;;;12.10;99.90;;;;;;5061294;28;20025;-64
2022/09/16 01:45:17;;;;;;;5.20;4.70;;;12.10;99.90;;;;;;5077204;28;20495;-64
2022/09/16 01:48:07;;;;;;;8.93;4.82;;;12.10;99.90;;;;;;5036196;28;20024;-63
2022/09/16 01:50:56;;;;;;;5.13;4.70;;;12.10;99.90;;;;;;5079688;28;20035;-64
2022/09/16 01:53:38;;;;;;;5.38;4.10;;;12.10;99.90;;;;;;5037762;28;20461;-63
2022/09/16 01:56:15;;;;;;;6.88;5.00;;;12.10;99.90;;;;;;5079501;28;20054;-64
2022/09/16 01:58:53;;;;;;;8.02;4.32;;;12.10;99.90;;;;;;5078158;28;20039;-63
2022/09/16 02:01:34;;;;;;;5.28;4.88;;;12.10;99.90;;;;;;5080897;28;20040;-63
2022/09/16 02:04:09;;;;;;;5.88;4.53;;;12.10;99.90;;;;;;5084237;28;20094;-63
2022/09/16 02:06:38;;;;;;;7.07;5.03;;;12.10;99.90;;;;;;5084616;28;20039;-63
2022/09/16 02:09:10;;;;;;;8.93;4.78;;;12.10;99.90;;;;;;5081024;28;20055;-64
2022/09/16 02:11:37;;;;;;;5.63;4.57;;;12.10;99.90;;;;;;5078112;28;20083;-63
2022/09/16 02:14:08;;;;;;;11.05;5.10;;;12.10;99.90;;;;;;5078620;28;20040;-64
2022/09/16 02:16:52;;;;;;;6.90;4.63;;;12.10;99.90;;;;;;5079704;28;20038;-63
2022/09/16 02:19:22;;;;;;;6.00;5.25;;;12.10;99.90;;;;;;5080180;28;20269;-64
2022/09/16 02:21:51;;;;;;;9.60;5.38;;;12.10;99.90;;;;;;5081836;28;20028;-63
2022/09/16 02:24:19;;;;;;;6.20;5.32;;;12.10;99.90;;;;;;5079617;28;20084;-64
2022/09/16 02:26:54;;;;;;;6.50;4.72;;;12.10;99.90;;;;;;5081346;28;20024;-64
2022/09/16 02:29:28;;;;;;;7.45;4.07;;;12.00;99.90;;;;;;5082814;28;20411;-64
2022/09/16 02:31:57;;;;;;;5.18;4.50;;;12.10;99.90;;;;;;5079600;28;20028;-63
2022/09/16 02:34:33;;;;;;;6.55;4.30;;;12.10;99.90;;;;;;5081639;28;20111;-63
2022/09/16 02:37:08;;;;;;;6.70;4.82;;;12.00;99.90;;;;;;5080211;28;20050;-63
2022/09/16 02:39:37;;;;;;;4.95;4.55;;;12.00;99.90;;;;;;5080835;28;20044;-63
2022/09/16 02:42:04;;;;;;;9.57;4.82;;;12.00;99.90;;;;;;5077402;28;20036;-63
2022/09/16 02:44:30;;;;;;;4.80;4.40;;;12.00;99.90;;;;;;5080050;28;20503;-63
2022/09/16 02:47:00;;;;;;;5.75;3.90;;;12.00;99.90;;;;;;5081113;28;20035;-63
2022/09/16 02:49:41;;;;;;;8.05;4.72;;;12.00;99.90;;;;;;5078964;28;20017;-63
2022/09/16 02:52:16;;;;;;;11.38;4.78;;;12.00;99.90;;;;;;5080327;28;20024;-63
2022/09/16 02:54:59;;;;;;;6.13;4.40;;;12.00;99.90;;;;;;5083495;28;20032;-63
2022/09/16 02:57:26;;;;;;;11.93;4.80;;;11.90;99.90;;;;;;5082688;28;20048;-63
2022/09/16 02:59:52;;;;;;;6.40;4.63;;;11.90;99.90;;;;;;5076754;28;20047;-63
2022/09/16 03:02:17;;;;;;;9.48;4.35;;;11.90;99.90;;;;;;5076363;28;20021;-63
2022/09/16 03:04:44;;;;;;;5.78;4.18;;;11.90;99.90;;;;;;5080050;28;20025;-63
2022/09/16 03:07:11;;;;;;;6.85;4.65;;;11.90;99.90;;;;;;5079377;28;20417;-63
2022/09/16 03:09:41;;;;;;;6.65;4.55;;;11.90;99.90;;;;;;5081721;28;20089;-63
2022/09/16 03:12:22;;;;;;;5.22;4.30;;;11.90;99.90;;;;;;5061620;28;20028;-63
2022/09/16 03:14:51;;;;;;;4.43;4.03;;;11.90;99.90;;;;;;5078955;28;20029;-63
2022/09/16 03:17:55;;;;;;;8.32;4.22;;;11.90;99.90;;;;;;5069137;28;20781;-64
2022/09/16 03:20:51;;;;;;;4.63;3.90;;;11.90;99.90;;;;;;5078737;28;20039;-63
2022/09/16 03:23:25;;;;;;;8.45;3.53;;;11.90;99.90;;;;;;5076213;28;20033;-63
2022/09/16 03:25:51;;;;;;;5.68;3.55;;;11.80;99.90;;;;;;5080962;28;20044;-63
2022/09/16 03:28:45;;;;;;;12.52;3.78;;;11.80;99.90;;;;;;5080477;28;21633;-63
2022/09/16 03:31:20;;;;;;;6.38;4.70;;;11.70;99.90;;;;;;5074858;28;20051;-63
2022/09/16 03:33:45;;;;;;;6.65;4.68;;;11.80;99.90;;;;;;5079410;28;20017;-63
2022/09/16 03:36:16;;;;;;;6.72;5.00;;;11.70;99.90;;;;;;5081567;28;20047;-63
2022/09/16 03:38:42;;;;;;;8.57;4.78;;;11.70;99.90;;;;;;5081929;28;20024;-63
2022/09/16 03:41:10;;;;;;;5.05;4.35;;;11.70;99.90;;;;;;5079384;28;20028;-64
2022/09/16 03:43:36;;;;;;;4.35;3.95;;;11.60;99.90;;;;;;5077588;28;20043;-63
2022/09/16 03:46:02;;;;;;;6.90;3.72;;;11.60;99.90;;;;;;5076594;28;20036;-63
2022/09/16 03:48:27;;;;;;;4.47;4.05;;;11.60;99.90;;;;;;5080892;28;20028;-63
2022/09/16 03:50:53;;;;;;;5.20;3.78;;;11.50;99.90;;;;;;5079658;28;20024;-63
2022/09/16 03:53:19;;;;;;;5.18;3.67;;;11.50;99.90;;;;;;5079257;28;20029;-64
2022/09/16 03:55:48;;;;;;;6.30;4.25;;;11.50;99.90;;;;;;5079314;28;20052;-63
2022/09/16 03:58:14;;;;;;;6.90;3.78;;;11.50;99.90;;;;;;5078318;28;20040;-63
2022/09/16 04:00:39;;;;;;;5.47;3.40;;;11.50;99.90;;;;;;5080186;28;20086;-63
2022/09/16 04:03:05;;;;;;;6.45;4.03;;;11.50;99.90;;;;;;5068695;28;20039;-63
2022/09/16 04:05:30;;;;;;;4.55;4.15;;;11.50;99.90;;;;;;5080208;28;20810;-64
2022/09/16 04:07:56;;;;;;;7.18;4.28;;;11.50;99.90;;;;;;5078883;28;20021;-63
2022/09/16 04:10:22;;;;;;;6.70;4.03;;;11.40;99.90;;;;;;5081273;28;20120;-64
2022/09/16 04:12:47;;;;;;;6.25;3.78;;;11.40;99.90;;;;;;5081144;28;20081;-64
2022/09/16 04:15:13;;;;;;;9.93;4.78;;;11.40;99.90;;;;;;5079139;28;20032;-63
2022/09/16 04:17:39;;;;;;;9.90;4.60;;;11.40;99.90;;;;;;5076219;28;20021;-64
2022/09/16 04:20:06;;;;;;;10.90;4.40;;;11.40;99.90;;;;;;5079920;28;20551;-63
2022/09/16 04:22:32;;;;;;;5.15;4.32;;;11.40;99.90;;;;;;5078149;28;20115;-63
2022/09/16 04:24:58;;;;;;;5.38;4.97;;;11.40;99.90;;;;;;5078777;28;20120;-65
2022/09/16 04:27:23;;;;;;;10.82;5.25;;;11.40;99.90;;;;;;5077233;28;20415;-63
2022/09/16 04:29:49;;;;;;;4.45;3.97;;;11.40;99.90;;;;;;5063283;28;20028;-63
2022/09/16 04:32:15;;;;;;;6.80;5.43;;;11.40;99.90;;;;;;5079932;28;20034;-63
2022/09/16 04:34:40;;;;;;;6.50;5.03;;;11.30;99.90;;;;;;5077307;28;20119;-63
2022/09/16 04:37:06;;;;;;;9.15;5.97;;;11.30;99.90;;;;;;5074019;28;20107;-63
2022/09/16 04:39:32;;;;;;;8.38;5.35;;;11.30;99.90;;;;;;5075701;28;20025;-64
2022/09/16 04:41:58;;;;;;;14.25;5.88;;;11.20;99.90;;;;;;5078678;28;20036;-64
2022/09/16 04:44:25;;;;;;;5.88;5.13;;;11.20;99.90;;;;;;5079065;28;20461;-64
2022/09/16 04:46:51;;;;;;;6.22;5.07;;;11.20;99.90;;;;;;5073874;28;20032;-63
2022/09/16 04:49:17;;;;;;;15.40;6.63;;;11.20;99.90;;;;;;5080647;28;20037;-64
2022/09/16 04:51:43;;;;;;;7.47;5.70;;;11.10;99.90;;;;;;5077727;28;20127;-64
2022/09/16 04:54:10;;;;;;;6.43;5.60;;;11.10;99.90;;;;;;5081083;28;20024;-63
2022/09/16 04:56:36;;;;;;;10.95;5.60;;;11.10;99.90;;;;;;5079418;28;20047;-63
2022/09/16 04:59:03;;;;;;;6.32;5.45;;;11.10;99.90;;;;;;5077818;28;20037;-63
2022/09/16 05:01:32;;;;;;;10.88;5.25;;;11.10;99.90;;;;;;5080263;28;20032;-63
2022/09/16 05:04:00;;;;;;;10.93;7.18;;;11.10;99.90;;;;;;5061831;28;20658;-63
2022/09/16 05:06:34;;;;;;;7.28;6.13;;;11.10;99.90;;;;;;5081379;28;20016;-63
2022/09/16 05:09:00;;;;;;;14.10;5.95;;;11.10;99.90;;;;;;5078052;28;20033;-63
2022/09/16 05:11:29;;;;;;;10.35;6.03;;;11.10;99.90;;;;;;5061953;28;20025;-64
2022/09/16 05:13:57;;;;;;;6.40;5.05;;;11.10;99.90;;;;;;5077385;28;20031;-63
2022/09/16 05:16:23;;;;;;;11.00;6.07;;;11.10;99.90;;;;;;5076251;28;20032;-64
2022/09/16 05:18:52;;;;;;;6.30;5.70;;;11.10;99.90;;;;;;5078866;28;20034;-63
2022/09/16 05:21:20;;;;;;;8.18;5.82;;;11.10;99.90;;;;;;5078020;28;20020;-64
2022/09/16 05:23:46;;;;;;;8.60;5.88;;;11.20;99.90;;;;;;5077716;28;20062;-63
2022/09/16 05:26:18;;;;;;;10.68;5.65;;;11.20;99.90;;;;;;5082883;28;20114;-63
2022/09/16 05:28:44;;;;;;;8.68;6.13;;;11.20;99.90;;;;;;5082610;28;20024;-63
2022/09/16 05:31:14;;;;;;;7.40;6.00;;;11.20;99.90;;;;;;5083498;28;20490;-63
2022/09/16 05:33:42;;;;;;;7.85;5.60;;;11.30;99.90;;;;;;5080060;28;20043;-63
2022/09/16 05:36:11;;;;;;;11.55;5.78;;;11.40;99.90;;;;;;5076726;28;20119;-63
2022/09/16 05:38:37;;;;;;;9.32;6.18;;;11.40;99.90;;;;;;5081699;28;20074;-63
2022/09/16 05:41:04;;;;;;;8.63;4.32;;;11.40;99.90;;;;;;5082431;28;20028;-63
2022/09/16 05:43:30;;;;;;;9.27;5.03;;;11.50;99.90;;;;;;5080323;28;20032;-63
2022/09/16 05:45:56;;;;;;;14.82;5.00;;;11.60;99.90;;;;;;5083936;28;20031;-63
2022/09/16 05:48:22;;;;;;;6.57;4.90;;;11.60;99.90;;;;;;5080217;28;20511;-63
2022/09/16 05:50:52;;;;;;;15.45;4.93;;;11.70;99.90;;;;;;5085592;28;20032;-63
2022/09/16 05:53:17;;;;;;;7.90;3.78;;;11.80;99.90;;;;;;5079462;28;20024;-63
2022/09/16 05:55:55;;;;;;;7.40;3.50;;;11.80;99.90;;;;;;5081193;28;20348;-63
2022/09/16 05:58:21;;;;;;;7.60;4.25;;;11.90;99.90;;;;;;5081247;28;20075;-63
2022/09/16 06:00:47;;;;;;;6.43;3.42;;;12.00;99.90;;;;;;5078186;28;20148;-63
2022/09/16 06:03:12;;;;;;;5.63;3.50;;;12.10;99.90;;;;;;5082840;28;20028;-63
2022/09/16 06:05:38;;;;;;;3.72;2.90;;;12.20;99.90;;;;;;5084753;28;20048;-63
2022/09/16 06:08:04;;;;;;;4.53;2.97;;;12.40;99.90;;;;;;5080012;28;20495;-63
2022/09/16 06:10:29;;;;;;;3.50;3.15;;;12.50;99.90;;;;;;5080326;28;20077;-63
2022/09/16 06:12:55;;;;;;;3.58;2.67;;;12.60;99.90;;;;;;5080741;28;20020;-63
2022/09/16 06:15:21;;;;;;;6.10;2.20;;;12.80;99.90;;;;;;5063918;28;20641;-63
2022/09/16 06:17:46;;;;;;;6.03;2.45;;;12.90;99.90;;;;;;5081499;28;20029;-63
2022/09/16 06:20:13;;;;;;;5.60;2.38;;;13.10;99.90;;;;;;5079838;28;20034;-63
2022/09/16 06:22:39;;;;;;;11.07;2.42;;;13.20;99.90;;;;;;5080142;28;20032;-63
2022/09/16 06:25:06;;;;;;;2.88;1.85;;;13.30;99.90;;;;;;5080682;28;20028;-63
2022/09/16 06:27:32;;;;;;;3.10;2.00;;;13.50;99.90;;;;;;5083234;28;20033;-64
2022/09/16 06:29:57;;;;;;;4.38;2.13;;;13.80;99.90;;;;;;5079745;28;20143;-63
2022/09/16 06:32:23;;;;;;;3.42;1.63;;;14.10;99.90;;;;;;5079221;28;20107;-64
2022/09/16 06:34:49;;;;;;;8.02;2.20;;;14.50;99.90;;;;;;5080639;28;20028;-63
2022/09/16 06:37:15;;;;;;;3.08;1.60;;;14.80;99.90;;;;;;5076914;28;20401;-63
2022/09/16 06:39:41;;;;;;;3.65;1.70;;;15.10;99.90;;;;;;5076804;28;20097;-63
2022/09/16 06:42:07;;;;;;;5.55;1.80;;;15.20;99.90;;;;;;5076567;28;20035;-63
2022/09/16 06:44:33;;;;;;;2.63;1.63;;;15.40;99.90;;;;;;5083056;28;20090;-63
2022/09/16 06:46:59;;;;;;;3.50;1.73;;;15.50;99.90;;;;;;5082741;28;20028;-64
2022/09/16 06:49:25;;;;;;;6.30;2.10;;;16.10;99.90;;;;;;5082272;28;20056;-64
2022/09/16 06:51:50;;;;;;;3.72;1.30;;;16.90;99.90;;;;;;5079821;28;20483;-64
2022/09/16 06:54:16;;;;;;;2.40;1.05;;;18.30;99.90;;;;;;5078836;28;20024;-63
2022/09/16 06:56:42;;;;;;;3.22;1.23;;;19.60;99.90;;;;;;5083671;28;20132;-64
2022/09/16 06:59:10;;;;;;;3.10;1.38;;;21.00;91.10;;;;;;5074740;28;20032;-64
2022/09/16 07:01:36;;;;;;;2.78;1.20;;;21.80;82.40;;;;;;5076928;28;20025;-64
2022/09/16 07:04:04;;;;;;;6.15;1.77;;;22.00;76.40;;;;;;5076141;28;20047;-64
2022/09/16 07:06:31;;;;;;;2.25;1.30;;;22.00;77.50;;;;;;5082705;28;20375;-64
2022/09/16 07:08:57;;;;;;;1.50;0.80;;;22.30;75.20;;;;;;5080779;28;20786;-64
2022/09/16 07:11:24;;;;;;;2.88;1.30;;;22.70;73.10;;;;;;5078160;28;20029;-64
2022/09/16 07:13:50;;;;;;;3.42;1.13;;;23.70;72.40;;;;;;5077887;28;20104;-64
2022/09/16 07:16:22;;;;;;;2.80;0.95;;;24.70;69.90;;;;;;5082159;28;20129;-64
2022/09/16 07:18:55;;;;;;;3.45;1.10;;;25.80;62.30;;;;;;5079489;28;20028;-64
2022/09/16 07:21:24;;;;;;;4.10;1.10;;;26.40;58.20;;;;;;5069916;28;20016;-64
2022/09/16 07:23:50;;;;;;;5.20;1.10;;;26.60;56.70;;;;;;5079649;28;20020;-64
2022/09/16 07:26:27;;;;;;;1.30;0.73;;;26.90;55.60;;;;;;5076067;28;20073;-64
2022/09/16 07:28:54;;;;;;;2.55;0.90;;;27.40;54.70;;;;;;5082345;28;20025;-64
2022/09/16 07:31:25;;;;;;;1.58;0.70;;;28.00;54.30;;;;;;5079083;28;20044;-64
2022/09/16 07:33:53;;;;;;;2.22;0.90;;;29.10;52.70;;;;;;5082958;28;20024;-64
2022/09/16 07:36:27;;;;;;;2.60;0.85;;;28.60;49.30;;;;;;5077215;28;20078;-65
2022/09/16 07:38:56;;;;;;;7.40;0.82;;;27.90;53.10;;;;;;5075586;28;20492;-65
2022/09/16 07:41:25;;;;;;;2.58;1.10;;;26.70;51.40;;;;;;5079157;28;20525;-65
2022/09/16 07:43:54;;;;;;;2.42;0.73;;;25.60;55.80;;;;;;5079986;28;20037;-64
2022/09/16 07:46:20;;;;;;;1.85;0.80;;;24.50;58.50;;;;;;5081168;28;20020;-65
2022/09/16 07:48:47;;;;;;;1.67;0.80;;;24.20;60.20;;;;;;5075966;28;20016;-65
2022/09/16 07:51:24;;;;;;;2.42;1.05;;;24.20;58.50;;;;;;5076576;28;20021;-64
2022/09/16 07:53:54;;;;;;;1.80;0.80;;;23.60;59.90;;;;;;5077008;28;20035;-64
2022/09/16 07:56:24;;;;;;;3.42;0.82;;;22.60;62.00;;;;;;5080885;28;20561;-63
2022/09/16 07:58:52;;;;;;;2.08;0.73;;;21.50;65.10;;;;;;5078261;28;20139;-63
2022/09/16 08:01:18;;;;;;;1.65;0.70;;;20.80;69.00;;;;;;5076036;28;20036;-63
2022/09/16 08:03:45;;;;;;;0.77;0.70;;;20.90;68.50;;;;;;5075577;28;20024;-64
2022/09/16 08:06:17;;;;;;;3.08;0.63;;;21.00;68.10;;;;;;5079499;28;20036;-63
2022/09/16 08:08:43;;;;;;;2.53;0.85;;;20.90;68.20;;;;;;5058731;28;20028;-64
2022/09/16 08:11:11;;;;;;;1.23;0.60;;;20.80;68.60;;;;;;5075775;28;20032;-64
2022/09/16 08:13:37;;;;;;;1.33;0.60;;;21.70;68.80;;;;;;5083430;28;20028;-64
2022/09/16 08:16:09;;;;;;;2.83;0.57;;;22.70;63.00;;;;;;5079437;28;20035;-66
2022/09/16 08:18:35;;;;;;;2.72;0.95;;;24.20;60.00;;;;;;5078519;28;20728;-64
2022/09/16 08:21:08;;;;;;;1.67;0.65;;;24.80;56.80;;;;;;5083536;28;20032;-64
2022/09/16 08:23:36;;;;;;;1.80;0.60;;;23.90;56.90;;;;;;5060342;28;20040;-64
2022/09/16 08:26:02;;;;;;;1.85;0.90;;;23.00;59.60;;;;;;5078853;28;20107;-64
2022/09/16 08:28:28;;;;;;;1.27;0.57;;;22.60;61.60;;;;;;5081312;28;20036;-63
2022/09/16 08:30:57;;;;;;;1.52;0.65;;;23.20;60.40;;;;;;5077494;28;20042;-64
2022/09/16 08:33:24;;;;;;;0.93;0.47;;;24.00;57.80;;;;;;5079308;28;20035;-64
2022/09/16 08:36:07;;;;;;;1.52;0.63;;;24.40;57.00;;;;;;5076857;28;20032;-63
2022/09/16 08:38:33;;;;;;;1.75;0.50;;;25.80;54.50;;;;;;5079134;28;20039;-64
2022/09/16 08:41:56;;;;;;;1.55;0.70;;;26.90;53.90;;;;;;5076962;28;20082;-64
2022/09/16 08:44:57;;;;;;;1.55;0.50;;;28.80;49.80;;;;;;5019747;28;20091;-64
2022/09/16 08:47:31;;;;;;;0.80;0.50;;;29.90;46.70;;;;;;5016897;28;20563;-64
2022/09/16 08:50:02;;;;;;;1.85;0.43;;;29.00;45.70;;;;;;5067353;28;20029;-64
2022/09/16 08:52:31;;;;;;;;;;;27.30;48.30;;;;;;5057943;28;20025;-64
2022/09/16 08:55:30;;;;;;;1.73;0.60;;;25.90;52.00;;;;;;5058658;28;19951;-64
2022/09/16 08:58:09;;;;;;;3.60;0.77;;;24.10;53.30;;;;;;5070462;28;20047;-63
2022/09/16 09:00:36;;;;;;;2.72;0.50;;;22.70;57.20;;;;;;5078947;28;20555;-64
2022/09/16 09:03:27;;;;;;;1.20;0.50;;;23.00;59.10;;;;;;5082472;28;20555;-64
2022/09/16 09:05:55;;;;;;;1.17;0.50;;;24.80;56.70;;;;;;5081001;28;20032;-64
2022/09/16 09:08:50;;;;;;;1.38;0.63;;;26.10;52.10;;;;;;5080053;28;20056;-64
2022/09/16 09:11:21;;;;;;;1.52;0.60;;;26.20;52.00;;;;;;5084023;28;20024;-63
2022/09/16 09:14:16;;;;;;;1.75;0.60;;;24.80;52.50;;;;;;5081184;28;20031;-64
2022/09/16 09:16:52;;;;;;;1.45;0.60;;;23.30;55.60;;;;;;5072677;28;20355;-63
2022/09/16 09:19:21;;;;;;;3.10;0.60;;;22.10;58.60;;;;;;5082630;28;20085;-62
2022/09/16 09:22:04;;;;;;;1.92;0.85;;;21.30;62.10;;;;;;5082627;28;20035;-62
2022/09/16 09:24:38;;;;;;;1.02;0.60;;;21.00;64.00;;;;;;5069659;28;20047;-62
2022/09/16 09:27:37;;;;;;;4.93;0.70;;;21.20;64.20;;;;;;5088101;28;20028;-62
2022/09/16 09:30:22;;;;;;;2.10;0.60;;;21.80;63.00;;;;;;5055707;28;20579;-62
2022/09/16 09:32:56;;;;;;;1.00;0.47;;;22.50;60.90;;;;;;5086075;28;20036;-63
2022/09/16 09:35:37;;;;;;;1.38;0.80;;;23.00;60.80;;;;;;5082738;28;20055;-63
2022/09/16 09:38:27;;;;;;;2.60;0.80;;;23.20;59.30;;;;;;5081845;28;20514;-63
2022/09/16 09:41:07;;;;;;;3.20;1.07;;;23.10;58.30;;;;;;5076251;28;20037;-63
2022/09/16 09:43:45;;;;;;;2.73;0.70;;;22.60;59.30;;;;;;5077072;28;20395;-62
2022/09/16 09:46:28;;;;;;;1.98;0.60;;;21.90;61.30;;;;;;5080227;28;20041;-62
2022/09/16 09:49:19;;;;;;;3.30;0.93;;;21.10;63.30;;;;;;5084208;28;20056;-63
2022/09/16 09:51:51;;;;;;;1.45;0.50;;;20.60;66.20;;;;;;5073961;28;20510;-63
2022/09/16 09:54:34;;;;;;;2.25;0.93;;;20.40;67.50;;;;;;5080245;28;20036;-63
2022/09/16 09:57:31;;;;;;;1.95;0.55;;;20.40;67.50;;;;;;5079357;28;20040;-62
2022/09/16 10:00:01;;;;;;;2.05;0.73;;;20.50;68.30;;;;;;5076458;28;20032;-63
2022/09/16 10:02:26;;;;;;;2.72;0.90;;;20.40;66.70;;;;;;5081462;28;20035;-62
2022/09/16 10:04:52;;;;;;;1.88;0.70;;;20.30;66.70;;;;;;5079446;28;20028;-62
2022/09/16 10:07:22;;;;;;;1.42;0.85;;;20.20;66.00;;;;;;5083201;28;20040;-63
2022/09/16 10:10:01;;;;;;;1.50;0.70;;;20.20;67.20;;;;;;5081252;28;20016;-63
2022/09/16 10:12:33;;;;;;;1.38;0.60;;;20.40;68.20;;;;;;5077952;28;20086;-63
2022/09/16 10:14:59;;;;;;;3.72;0.80;;;20.50;67.20;;;;;;5079376;28;20028;-63
2022/09/16 10:17:27;;;;;;;3.50;0.60;;;20.30;67.30;;;;;;5069066;28;20430;-63
2022/09/16 10:20:04;;;;;;;1.65;0.70;;;20.10;68.00;;;;;;5078696;28;20024;-63
2022/09/16 10:22:33;;;;;;;1.77;0.60;;;19.90;67.80;;;;;;5082384;28;20119;-62
2022/09/16 10:25:23;;;;;;;2.38;0.82;;;19.40;70.00;;;;;;5060996;28;20048;-63
2022/09/16 10:28:00;;;;;;;3.85;0.70;;;18.90;72.10;;;;;;5085430;28;20103;-63
2022/09/16 10:30:32;;;;;;;1.20;0.70;;;18.60;72.40;;;;;;5082878;28;20094;-63
2022/09/16 10:33:30;;;;;;;3.88;0.70;;;18.40;75.10;;;;;;5084269;28;20701;-62
2022/09/16 10:36:00;;;;;;;1.45;0.70;;;18.10;79.40;;;;;;5065811;28;20079;-62
2022/09/16 10:38:45;;;;;;;1.90;0.70;;;18.00;82.80;;;;;;5081358;28;20028;-62
2022/09/16 10:41:20;;;;;;;1.92;0.80;;;18.00;87.60;;;;;;5085361;28;20040;-63
2022/09/16 10:44:06;;;;;;;2.65;0.80;;;18.10;88.90;;;;;;5083355;28;20196;-62
2022/09/16 10:46:32;;;;;;;3.13;0.80;;;18.50;85.90;;;;;;5082721;28;20036;-62
2022/09/16 10:49:09;;;;;;;1.00;0.60;;;18.70;82.30;;;;;;5083250;28;20038;-67
2022/09/16 10:51:35;;;;;;;2.15;0.60;;;19.10;80.10;;;;;;5084223;28;20910;-63
2022/09/16 10:54:05;;;;;;;1.67;0.60;;;19.70;78.60;;;;;;5086752;28;20037;-62
2022/09/16 10:56:50;;;;;;;1.80;0.70;;;20.70;75.00;;;;;;5083781;28;20526;-62
2022/09/16 10:59:16;;;;;;;0.82;0.50;;;21.80;71.00;;;;;;5084037;28;20030;-63
2022/09/16 11:01:53;;;;;;;1.90;0.60;;;22.10;65.00;;;;;;5085416;28;20111;-63
2022/09/16 11:04:43;;;;;;;0.85;0.57;;;21.80;64.80;;;;;;5086409;28;20503;-63
2022/09/16 11:07:18;;;;;;;2.33;0.70;;;21.30;65.20;;;;;;5084807;28;20490;-62
2022/09/16 11:10:12;;;;;;;0.93;0.52;;;21.30;65.90;;;;;;5080029;28;20074;-62
2022/09/16 11:13:12;;;;;;;2.05;0.50;;;21.30;62.50;;;;;;5080860;28;20511;-62
2022/09/16 11:16:29;;;;;;;2.78;0.60;;;20.90;64.90;;;;;;5055393;28;20047;-62
2022/09/16 11:19:00;;;;;;;0.90;0.40;;;20.60;67.20;;;;;;5038996;28;20157;-62
2022/09/16 11:21:38;;;;;;;1.35;0.82;;;20.70;67.70;;;;;;5084166;28;20051;-62
2022/09/16 11:24:06;;;;;;;1.67;0.50;;;21.10;66.70;;;;;;5081104;28;20039;-63
2022/09/16 11:26:42;;;;;;;5.10;0.75;;;21.50;67.90;;;;;;5082722;28;20530;-63
2022/09/16 11:29:42;;;;;;;2.33;0.70;;;22.20;66.20;;;;;;5065199;28;20043;-63
2022/09/16 11:32:30;;;;;;;2.25;0.50;;;23.20;62.60;;;;;;5078567;28;20085;-63
2022/09/16 11:35:29;;;;;;;1.88;0.73;;;23.50;57.60;;;;;;5080642;28;20066;-64
2022/09/16 11:38:16;;;;;;;1.00;0.50;;;23.20;56.60;;;;;;5081330;28;20028;-65
2022/09/16 11:41:09;;;;;;;1.63;0.70;;;22.60;59.00;;;;;;5082106;28;20024;-64
2022/09/16 11:44:10;;;;;;;1.88;0.60;;;22.20;59.60;;;;;;5079402;28;20032;-67
2022/09/16 11:46:48;;;;;;;1.02;0.43;;;21.70;63.50;;;;;;5031350;28;20036;-64
2022/09/16 11:49:42;;;;;;;0.52;0.50;;;21.50;64.10;;;;;;5078942;28;20036;-65
2022/09/16 11:52:29;;;;;;;2.58;0.60;;;21.10;63.20;;;;;;5078141;28;20379;-64
2022/09/16 11:55:18;;;;;;;0.95;0.40;;;20.70;63.90;;;;;;5081811;28;20069;-64
2022/09/16 11:57:58;;;;;;;1.92;0.60;;;20.40;64.70;;;;;;5082162;28;20040;-65
2022/09/16 12:00:24;;;;;;;3.08;0.68;;;19.90;65.70;;;;;;5076925;28;20029;-65
2022/09/16 12:03:19;;;;;;;1.40;0.60;;;19.30;68.80;;;;;;5080934;28;20039;-64
2022/09/16 12:05:53;;;;;;;1.05;0.70;;;18.50;77.40;;;;;;5075941;28;20029;-67
2022/09/16 12:08:44;;;;;;;1.55;0.80;;;18.00;88.60;;;;;;5080592;28;20020;-63
2022/09/16 12:11:31;;;;;;;5.32;0.80;;;17.60;99.00;;;;;;5080082;28;20050;-72
2022/09/16 12:14:14;;;;;;;1.73;0.80;;;17.40;99.50;;;;;;5076720;28;20036;-67
2022/09/16 12:16:45;;;;;;;2.60;0.70;;;17.50;99.90;;;;;;5079253;28;20133;-66
2022/09/16 12:19:28;;;;;;;1.70;0.60;;;18.10;99.90;;;;;;5082099;28;20030;-64
2022/09/16 12:22:16;;;;;;;4.63;0.80;;;18.60;97.40;;;;;;5080970;28;20033;-64
2022/09/16 12:24:43;;;;;;;1.65;0.75;;;19.10;93.40;;;;;;5079581;28;20137;-67
2022/09/16 12:27:12;;;;;;;2.47;0.77;;;19.20;84.40;;;;;;5079586;28;20029;-66
2022/09/16 12:30:10;;;;;;;2.20;0.80;;;19.30;82.10;;;;;;5077627;28;20055;-66
2022/09/16 12:32:57;;;;;;;1.05;0.88;;;19.40;81.00;;;;;;5074352;28;20752;-65
2022/09/16 12:35:40;;;;;;;3.47;0.80;;;19.40;80.70;;;;;;5082290;28;20041;-64
2022/09/16 12:38:15;;;;;;;2.47;0.80;;;19.40;80.60;;;;;;5084317;28;20492;-67
2022/09/16 12:41:03;;;;;;;1.45;0.75;;;19.60;86.20;;;;;;5083695;28;20035;-66
2022/09/16 12:43:48;;;;;;;2.08;0.80;;;20.00;83.20;;;;;;5085056;28;20040;-64
2022/09/16 12:46:32;;;;;;;0.73;0.57;;;20.60;79.80;;;;;;5084414;28;20025;-64
2022/09/16 12:49:28;;;;;;;1.35;0.90;;;21.00;75.20;;;;;;5080087;28;20384;-68
2022/09/16 12:52:03;;;;;;;2.60;0.90;;;21.00;69.20;;;;;;5083728;28;20096;-67
2022/09/16 12:55:02;;;;;;;1.73;0.70;;;21.10;72.70;;;;;;5083320;28;20032;-65
2022/09/16 12:57:46;;;;;;;1.63;0.80;;;21.30;75.30;;;;;;5083820;28;20048;-65
2022/09/16 13:00:24;;;;;;;1.98;0.80;;;21.60;73.30;;;;;;5083224;28;20028;-67
2022/09/16 13:02:57;;;;;;;1.30;0.98;;;21.70;70.10;;;;;;5084121;28;20044;-67
2022/09/16 13:05:33;;;;;;;1.27;0.70;;;21.70;69.10;;;;;;5082085;28;20113;-64
2022/09/16 13:08:19;;;;;;;2.05;0.80;;;21.80;68.70;;;;;;5081245;28;20036;-65
2022/09/16 13:10:53;;;;;;;2.10;0.90;;;21.30;66.50;;;;;;5081075;28;20456;-65
2022/09/16 13:13:30;;;;;;;1.67;0.85;;;21.00;67.40;;;;;;5086839;28;20029;-65
2022/09/16 13:15:57;;;;;;;1.25;1.00;;;20.70;68.70;;;;;;5081758;28;20035;-64
2022/09/16 13:18:36;;;;;;;2.97;0.70;;;20.50;70.10;;;;;;5059874;28;20660;-65
2022/09/16 13:21:21;;;;;;;2.45;0.90;;;20.20;71.40;;;;;;5076655;28;20148;-65
2022/09/16 13:24:11;;;;;;;1.60;0.90;;;19.90;71.90;;;;;;5064850;28;20028;-64